Главная страница
METAR-TAF:

METAR-TAF

Аэропорты :

Утти

Utti, Финляндия

широта: 60-54N, долгота: 026-56E, высота над уровнем моря: 100 м

Текущие метеонаблюдения

Эта сводка был подготовлена 15 минут назад, в 20:20 UTC
Ветер 5 Узел от южный-юго-западный
Температура 13°C
Влажность 62%
Давление 1014 hPa
Видимость 10 км и более
Нет облачности ниже 1500 м, и нет кучево-дождевой облачности

METAR: EFUT 132020Z AUTO 21005KT CAVOK 13/06 Q1014

Время: 23:35 (20:35 UTC)

Прогноз

Эта сводка был подготовлена 9 часа и 10 минут назад, в 11:25 UTC
Прогноз действительный с 13-го 12 UTC до 13-го 15 UTC
Ветер 8 Узел от юго-западный
Видимость 10 км и более
Нет облачности ниже 1500 м, и нет кучево-дождевой облачности
временами
С 13-го 12 UTC до 13-го 13 UTC
небольшая облачность на высоте 4000 фута, Кучево-дождевые.

TAF: EFUT 131125Z 1312/1315 22008KT CAVOK TEMPO 1312/1313 FEW040CB

Метеонаблюдения и прогнозы для более 4000 аэропортов (сводки METAR и TAF).

Имеющиеся станции представлены на карте желтыми и красными точками.

Чтобы увидеть название станции, наведите на нее мышь.

Затем щелкните, чтобы увидеть метеонаблюдения и метеопрогнозы.

Управление картой: чтобы увеличить масштаб, щелкните зеленые кнопки с черным крестиком; чтобы уменьшить масштаб, щелкните зеленую кнопку с тире; для просмотра соседних карт щелкайте зеленые стрелки.


METAR-TAF: